PWSweather.com
Personal Weather Stations
Station Observations
FAUSKE
Nordland, Norway, FauskeNO 8200

Nordland, NorwayFauskeNO 8200

Lat: 67.2607586, Lon: 15.4114204

Elevation: 40

Station Type: Davis Vantage PRO2

http://www.bjornli.net/weather.html

Latest ConditionsUpdated 7:40:09 AM GMT+01:01 Friday, Nov 28, 2014
Currently Today's Max Today's Min Today's Average
Temperature 38.9°F3.8°C 39.3°F4.1°C 38.2°F3.4°C 38.7°F3.7°C
Dew Point 37.6°F3.1°C 37.8°F3.2°C 36.9°F2.7°C 37.5°F3.1°C
Winds Calm Calm 2.0 mph SE3.2 kmh SE - 0.2 mph 0.3 kmh
Wind Gusts 3.0 mph4.8 kmh 6.0 mph9.7 kmh - -
Humidity 95% 96% 94% 95%
Pressure 30.15 in1021.0 mb 30.15 in1021.0 mb 30.06 in1017.9 mb -
Hour Temp Dew Point Humidity Winds Wind Gusts Pressure Precip Precip Rate Daily Precip Total
07:40 AM 38.9°F3.8°C 37.6°F3.1°C 95% Calm Calm 3.0 mph4.8 kmh 30.15 in1021.0 mb 0.01 in0.3 mm 0.06 in/hr1.5 mm/hr 0.11 in2.8 mm
07:30 AM 38.8°F3.8°C 37.5°F3.1°C 95% 2.0 mph N3.2 kmh N 3.0 mph4.8 kmh 30.14 in1020.7 mb 0.00 in0.0 mm 0.00 in/hr0.0 mm/hr 0.10 in2.5 mm
07:10 AM 38.8°F3.8°C 37.5°F3.1°C 95% Calm Calm 5.0 mph8.0 kmh 30.13 in1020.3 mb 0.00 in0.0 mm 0.00 in/hr0.0 mm/hr 0.10 in2.5 mm
07:00 AM 38.8°F3.8°C 37.5°F3.1°C 95% Calm Calm 5.0 mph8.0 kmh 30.13 in1020.3 mb 0.00 in0.0 mm 0.00 in/hr0.0 mm/hr 0.10 in2.5 mm
06:40 AM 38.7°F3.7°C 37.7°F3.2°C 96% 2.0 mph SE3.2 kmh SE 4.0 mph6.4 kmh 30.12 in1020.0 mb 0.00 in0.0 mm 0.00 in/hr0.0 mm/hr 0.10 in2.5 mm
06:30 AM 38.7°F3.7°C 37.4°F3.0°C 95% Calm Calm -- 30.12 in1020.0 mb 0.00 in0.0 mm 0.00 in/hr0.0 mm/hr 0.10 in2.5 mm
06:10 AM 38.9°F3.8°C 37.6°F3.1°C 95% Calm Calm -- 30.11 in1019.6 mb 0.02 in0.5 mm 0.00 in/hr0.0 mm/hr 0.10 in2.5 mm
06:00 AM 38.9°F3.8°C 37.6°F3.1°C 95% Calm Calm -- 30.11 in1019.6 mb 0.02 in0.5 mm 0.00 in/hr0.0 mm/hr 0.10 in2.5 mm
05:40 AM 38.7°F3.7°C 37.7°F3.2°C 96% 2.0 mph SE3.2 kmh SE 3.0 mph4.8 kmh 30.11 in1019.6 mb 0.02 in0.5 mm 0.00 in/hr0.0 mm/hr 0.10 in2.5 mm
05:30 AM 38.7°F3.7°C 37.4°F3.0°C 95% Calm Calm -- 30.11 in1019.6 mb 0.02 in0.5 mm 0.00 in/hr0.0 mm/hr 0.10 in2.5 mm
05:10 AM 38.8°F3.8°C 37.8°F3.2°C 96% Calm Calm 6.0 mph9.7 kmh 30.11 in1019.6 mb 0.02 in0.5 mm 0.12 in/hr3.0 mm/hr 0.10 in2.5 mm
05:00 AM 38.6°F3.7°C 37.3°F2.9°C 95% Calm Calm -- 30.11 in1019.6 mb 0.00 in0.0 mm 0.00 in/hr0.0 mm/hr 0.08 in2.0 mm
04:40 AM 38.8°F3.8°C 37.8°F3.2°C 96% Calm Calm 2.0 mph3.2 kmh 30.10 in1019.3 mb 0.00 in0.0 mm 0.00 in/hr0.0 mm/hr 0.08 in2.0 mm
04:30 AM 38.8°F3.8°C 37.8°F3.2°C 96% Calm Calm -- 30.10 in1019.3 mb 0.00 in0.0 mm 0.00 in/hr0.0 mm/hr 0.08 in2.0 mm
04:10 AM 38.6°F3.7°C 37.6°F3.1°C 96% Calm Calm -- 30.09 in1019.0 mb 0.01 in0.3 mm 0.00 in/hr0.0 mm/hr 0.08 in2.0 mm
04:00 AM 38.5°F3.6°C 37.5°F3.1°C 96% Calm Calm -- 30.09 in1019.0 mb 0.01 in0.3 mm 0.00 in/hr0.0 mm/hr 0.08 in2.0 mm
03:40 AM 38.2°F3.4°C 36.9°F2.7°C 95% Calm Calm -- 30.09 in1019.0 mb 0.01 in0.3 mm 0.00 in/hr0.0 mm/hr 0.08 in2.0 mm
03:30 AM 38.3°F3.5°C 37.3°F2.9°C 96% Calm Calm -- 30.09 in1019.0 mb 0.01 in0.3 mm 0.00 in/hr0.0 mm/hr 0.08 in2.0 mm
03:10 AM 38.5°F3.6°C 37.5°F3.1°C 96% Calm Calm -- 30.09 in1019.0 mb 0.01 in0.3 mm 0.06 in/hr1.5 mm/hr 0.08 in2.0 mm
03:00 AM 38.4°F3.6°C 37.1°F2.8°C 95% Calm Calm -- 30.09 in1019.0 mb 0.00 in0.0 mm 0.00 in/hr0.0 mm/hr 0.07 in1.8 mm
02:40 AM 38.5°F3.6°C 37.2°F2.9°C 95% Calm Calm 2.0 mph3.2 kmh 30.08 in1018.6 mb 0.00 in0.0 mm 0.00 in/hr0.0 mm/hr 0.07 in1.8 mm
02:30 AM 38.5°F3.6°C 37.2°F2.9°C 95% Calm Calm -- 30.08 in1018.6 mb 0.00 in0.0 mm 0.00 in/hr0.0 mm/hr 0.07 in1.8 mm
02:10 AM 38.6°F3.7°C 37.3°F2.9°C 95% Calm Calm -- 30.08 in1018.6 mb 0.02 in0.5 mm 0.00 in/hr0.0 mm/hr 0.07 in1.8 mm
02:00 AM 38.7°F3.7°C 37.4°F3.0°C 95% Calm Calm -- 30.08 in1018.6 mb 0.02 in0.5 mm 0.00 in/hr0.0 mm/hr 0.07 in1.8 mm
01:40 AM 38.8°F3.8°C 37.5°F3.1°C 95% Calm Calm -- 30.08 in1018.6 mb 0.03 in0.8 mm 0.00 in/hr0.0 mm/hr 0.07 in1.8 mm
01:30 AM 38.8°F3.8°C 37.5°F3.1°C 95% Calm Calm -- 30.08 in1018.6 mb 0.03 in0.8 mm 0.00 in/hr0.0 mm/hr 0.07 in1.8 mm
01:10 AM 38.8°F3.8°C 37.5°F3.1°C 95% Calm Calm -- 30.08 in1018.6 mb 0.04 in1.0 mm 0.12 in/hr3.0 mm/hr 0.07 in1.8 mm
01:00 AM 38.9°F3.8°C 37.6°F3.1°C 95% Calm Calm -- 30.07 in1018.3 mb 0.02 in0.5 mm 0.00 in/hr0.0 mm/hr 0.05 in1.3 mm
12:40 AM 39.1°F3.9°C 37.8°F3.2°C 95% Calm Calm -- 30.07 in1018.3 mb 0.03 in0.8 mm 0.00 in/hr0.0 mm/hr 0.05 in1.3 mm
12:30 AM 39.2°F4.0°C 37.6°F3.1°C 94% Calm Calm -- 30.07 in1018.3 mb 0.03 in0.8 mm 0.00 in/hr0.0 mm/hr 0.05 in1.3 mm
12:10 AM 39.3°F4.1°C 37.7°F3.2°C 94% Calm Calm -- 30.06 in1017.9 mb 0.05 in1.3 mm 0.00 in/hr0.0 mm/hr 0.05 in1.3 mm
12:00 AM 39.2°F4.0°C 37.6°F3.1°C 94% Calm Calm -- 30.06 in1017.9 mb 0.05 in1.3 mm 0.00 in/hr0.0 mm/hr 0.05 in1.3 mm